Latest Weather Observations for Cooma Airport

IDN60901

Issued at 5:41 pm EDT Monday 27 March 2017 (issued every 10 minutes, with the page automatically refreshed every 10 minutes)

About weather observations | Map of Canberra area stations | Latest observations for Canberra area | Other Formats
Station Details ID: 070217 Name: COOMA AIRPORT AWS Lat: -36.29 Lon: 148.97 Height: 930.0 m
Data from the previous 72 hours. | See also: Recent months at Cooma Airport
Date/Time
EDT
Temp
°C
App
Temp
°C
Dew
Point
°C
Rel
Hum
%
Delta-T
°C
Wind Press
QNH
hPa
Press
MSL
hPa
Rain since
9am
mm
Dir  Spd
km/h
Gust
km/h
Spd
kts
Gust
kts
27/05:30pm 24.9 23.7 15.0 54 6.2 N 15 20 8 11 1010.9 1007.8 0.0
27/05:00pm 25.7 24.7 14.5 50 7.0 N 13 19 7 10 1011.3 1008.3 0.0
27/04:30pm 26.0 23.5 14.1 47 7.3 NNW 20 28 11 15 1011.6 1008.6 0.0
27/04:00pm 27.7 25.4 14.7 45 8.2 NNW 20 33 11 18 1011.8 1008.8 0.0
27/03:30pm 27.5 25.0 14.2 44 8.3 NNW 20 30 11 16 1012.1 1009.1 0.0
27/03:00pm 27.8 25.9 15.1 46 8.0 NNW 19 28 10 15 1012.5 1009.5 0.0
27/02:30pm 26.5 22.7 14.6 48 7.4 NNW 28 35 15 19 1012.6 1009.6 0.0
27/02:00pm 26.8 24.1 14.5 46 7.7 NNW 22 35 12 19 1013.3 1010.3 0.0
27/01:30pm 26.2 22.6 14.3 48 7.4 NNW 26 33 14 18 1013.8 1010.9 0.0
27/01:00pm 25.2 23.9 13.7 49 7.0 N 13 20 7 11 1014.4 1011.4 0.0
27/12:30pm 25.3 23.3 13.8 49 7.1 NW 17 30 9 16 1014.8 1011.9 0.0
27/12:00pm 25.4 23.1 14.2 50 6.9 NW 19 32 10 17 1015.3 1012.4 0.0
27/11:30am 24.6 22.8 13.2 49 6.9 NW 15 22 8 12 1015.6 1012.6 0.0
27/11:00am 24.7 22.7 13.9 51 6.6 NW 17 24 9 13 1015.7 1012.7 0.0
27/10:30am 23.2 21.3 14.2 57 5.5 NNE 17 24 9 13 1016.0 1013.1 0.0
27/10:00am 21.2 18.7 14.1 64 4.3 NNE 20 24 11 13 1016.3 1013.4 0.0
27/09:30am 19.4 16.6 14.4 73 3.0 NE 22 26 12 14 1016.8 1013.9 0.0
27/09:00am 17.6 15.3 14.1 80 2.1 NE 19 24 10 13 1017.0 1014.1 0.2
27/08:30am 16.2 13.2 13.7 85 1.5 NE 22 26 12 14 1017.0 1014.1 0.2
27/08:00am 14.7 12.1 13.9 95 0.5 NE 20 24 11 13 1017.0 1014.1 0.2
27/07:30am 13.2 10.5 13.0 99 0.1 ENE 19 20 10 11 1016.9 1014.0 0.2
27/07:00am 13.1 10.4 12.9 99 0.1 ENE 19 20 10 11 1016.7 1013.8 0.2
27/06:30am 12.3 10.2 12.3 100 0.0 NE 15 17 8 9 1016.7 1013.8 0.2
27/06:00am 12.9 10.5 12.7 99 0.1 NE 17 19 9 10 1016.8 1013.9 0.2
27/05:30am 12.9 11.0 12.9 100 0.0 NE 15 19 8 10 1016.7 1013.8 0.2
27/05:00am 13.1 11.2 13.1 100 0.0 NE 15 17 8 9 1016.7 1013.8 0.2
27/04:30am 12.8 11.6 12.8 100 0.0 ENE 11 11 6 6 1016.8 1013.9 0.2
27/04:00am 12.6 10.6 12.6 100 0.0 NNE 15 17 8 9 1017.2 1014.3 0.2
27/03:30am 12.8 11.2 12.8 100 0.0 NE 13 15 7 8 1017.4 1014.5 0.2
27/03:00am 13.1 11.2 13.1 100 0.0 NE 15 17 8 9 1017.8 1014.9 0.2
27/02:30am 13.1 11.2 13.1 100 0.0 NE 15 15 8 8 1018.1 1015.2 0.2
27/02:00am 13.1 11.5 12.9 99 0.1 NE 13 15 7 8 1018.4 1015.5 0.2
27/01:30am 13.1 11.5 12.9 99 0.1 NNE 13 15 7 8 1018.7 1015.9 0.2
27/01:00am 13.3 11.8 13.1 99 0.1 NNE 13 15 7 8 1019.0 1016.1 0.2
27/12:30am 13.2 11.3 13.0 99 0.1 NNE 15 15 8 8 1019.2 1016.3 0.2
27/12:00am 13.3 11.8 13.1 99 0.1 NNE 13 13 7 7 1019.4 1016.5 0.2
 
Date/Time
EDT
Temp
°C
App
Temp
°C
Dew
Point
°C
Rel
Hum
%
Delta-T
°C
Wind Press
QNH
hPa
Press
MSL
hPa
Rain since
9am
mm
Dir  Spd
km/h
Gust
km/h
Spd
kts
Gust
kts
26/11:30pm 13.9 12.9 13.4 97 0.3 N 11 13 6 7 1019.6 1016.8 0.2
26/11:00pm 13.8 12.9 13.6 99 0.1 NNE 11 13 6 7 1019.6 1016.8 0.2
26/10:30pm 14.2 12.5 13.7 97 0.3 NNE 15 17 8 9 1019.6 1016.8 0.2
26/10:00pm 15.0 13.9 14.4 96 0.4 NE 13 17 7 9 1019.6 1016.8 0.2
26/09:30pm 15.1 13.9 14.1 94 0.6 NE 13 15 7 8 1019.4 1016.5 0.2
26/09:00pm 15.9 14.5 14.4 91 0.9 NNE 15 17 8 9 1019.1 1016.2 0.2
26/08:30pm 16.9 15.1 14.5 86 1.4 NE 17 19 9 10 1018.8 1016.0 0.2
26/08:00pm 18.0 15.5 14.1 78 2.3 ENE 20 28 11 15 1018.4 1015.5 0.2
26/07:30pm 18.9 16.3 13.7 72 3.1 ENE 20 30 11 16 1018.0 1015.1 0.2
26/07:00pm 19.8 17.5 14.0 69 3.5 ENE 19 26 10 14 1017.6 1014.8 0.2
26/06:30pm 21.8 19.4 13.7 60 4.9 ENE 19 26 10 14 1017.3 1014.4 0.2
26/06:00pm 23.7 22.4 11.1 45 7.3 NNE 9 15 5 8 1017.1 1014.2 0.2
26/05:30pm 24.1 22.4 11.1 44 7.6 NE 11 17 6 9 1017.0 1014.1 0.2
26/05:00pm 23.4 21.8 10.1 43 7.6 NNE 9 20 5 11 1017.1 1014.2 0.2
26/04:30pm 24.2 22.7 10.5 42 7.9 ENE 9 19 5 10 1017.2 1014.3 0.2
26/04:00pm 24.2 22.7 11.9 46 7.3 E 11 17 6 9 1017.1 1014.2 0.2
26/03:30pm 24.0 22.4 10.3 42 7.9 ENE 9 17 5 9 1017.2 1014.3 0.2
26/03:00pm 24.2 22.6 12.8 49 6.8 E 13 20 7 11 1017.4 1014.5 0.2
26/02:30pm 23.8 22.3 11.8 47 7.1 ENE 11 17 6 9 1017.8 1014.9 0.2
26/02:00pm 23.9 22.6 13.7 53 6.2 NE 13 20 7 11 1018.2 1015.3 0.2
26/01:30pm 23.6 21.9 12.6 50 6.6 NE 13 19 7 10 1018.5 1015.6 0.2
26/01:00pm 22.7 20.2 11.1 48 6.7 NE 15 19 8 10 1018.7 1015.9 0.2
26/12:30pm 22.6 19.8 11.4 49 6.5 NE 17 22 9 12 1019.1 1016.2 0.2
26/12:00pm 21.6 19.8 13.2 59 5.0 NE 15 20 8 11 1019.2 1016.3 0.2
26/11:30am 20.1 18.5 13.8 67 3.8 NE 15 19 8 10 1019.4 1016.5 0.2
26/11:00am 18.7 17.5 14.0 74 2.8 NE 13 17 7 9 1019.8 1017.0 0.0
26/10:30am 16.7 16.0 14.2 85 1.5 NE 11 15 6 8 1019.8 1017.0 0.0
26/10:00am 14.0 13.0 13.4 96 0.3 NE 11 13 6 7 1019.7 1016.9 0.0
26/09:50am 13.4 11.9 13.2 99 0.1 NE 13 15 7 8 1019.6 1016.8 0.0
26/09:30am 12.2 10.8 12.2 100 0.0 NE 11 13 6 7 1019.6 1016.8 0.0
26/09:25am 11.9 10.4 11.9 100 0.0 NE 11 13 6 7 1019.5 1016.6 0.0
26/09:00am 11.1 9.4 11.1 100 0.0 NNE 11 15 6 8 1019.5 1016.6 0.0
26/08:30am 10.4 8.5 10.4 100 0.0 NNE 11 13 6 7 1019.2 1016.3 0.0
26/08:00am 9.3 7.5 9.3 100 0.0 NNE 9 11 5 6 1019.0 1016.1 0.0
26/07:30am 7.8 6.0 7.8 100 0.0 NNE 7 9 4 5 1018.6 1015.8 0.0
26/07:00am 7.3 5.5 7.3 100 0.0 NNE 6 7 3 4 1018.2 1015.3 0.0
26/06:30am 7.9 6.1 7.9 100 0.0 N 7 9 4 5 1018.0 1015.1 0.0
26/06:00am 8.3 6.6 8.3 100 0.0 N 7 9 4 5 1017.8 1014.9 0.0
26/05:30am 8.2 6.5 8.2 100 0.0 N 7 7 4 4 1017.2 1014.3 0.0
26/05:00am 8.5 6.8 8.5 100 0.0 N 7 9 4 5 1017.1 1014.2 0.0
26/04:30am 9.1 7.6 9.1 100 0.0 N 7 9 4 5 1017.3 1014.4 0.0
26/04:00am 7.7 7.2 7.7 100 0.0 CALM 0 7 0 4 1017.5 1014.6 0.0
26/03:30am 8.5 8.2 8.5 100 0.0 CALM 0 4 0 2 1017.2 1014.3 0.0
26/03:00am 9.2 7.7 9.2 100 0.0 N 7 7 4 4 1017.5 1014.6 0.0
26/02:37am 8.4 6.9 8.3 99 0.1 NNE 6 7 3 4 1017.8 1014.9 0.0
26/02:34am 8.6 7.5 8.5 99 0.1 NNE 4 7 2 4 1017.8 1014.9 0.0
26/02:30am 8.8 8.1 8.7 99 0.1 NNE 2 7 1 4 1017.8 1014.9 0.0
26/02:22am 8.7 8.4 8.6 99 0.1 CALM 0 0 0 0 1017.9 1015.0 0.0
26/02:02am 9.4 8.5 9.4 100 0.0 N 4 7 2 4 1017.9 1015.0 0.0
26/02:00am 9.6 8.4 9.6 100 0.0 N 6 7 3 4 1017.9 1015.0 0.0
26/01:30am 10.3 9.7 10.3 100 0.0 N 4 6 2 3 1018.1 1015.2 0.0
26/01:21am 9.7 8.5 9.6 99 0.1 N 6 7 3 4 1018.0 1015.1 0.0
26/01:14am 8.9 7.3 8.8 99 0.1 NNE 7 7 4 4 1018.0 1015.1 0.0
26/01:00am 9.3 8.0 9.2 99 0.1 NNE 6 7 3 4 1018.1 1015.2 0.0
26/12:30am 9.6 9.1 9.5 99 0.1 NE 2 6 1 3 1018.3 1015.4 0.0
26/12:00am 9.9 8.8 9.8 99 0.1 NE 6 7 3 4 1018.5 1015.6 0.0
 
Date/Time
EDT
Temp
°C
App
Temp
°C
Dew
Point
°C
Rel
Hum
%
Delta-T
°C
Wind Press
QNH
hPa
Press
MSL
hPa
Rain since
9am
mm
Dir  Spd
km/h
Gust
km/h
Spd
kts
Gust
kts
25/11:30pm 9.8 9.8 9.7 99 0.1 CALM 0 0 0 0 1018.6 1015.8 0.0
25/11:00pm 10.2 10.3 10.1 99 0.1 CALM 0 0 0 0 1018.6 1015.8 0.0
25/10:30pm 10.4 10.5 10.2 99 0.1 CALM 0 0 0 0 1018.5 1015.6 0.0
25/10:00pm 10.8 11.0 10.5 98 0.2 CALM 0 2 0 1 1018.4 1015.5 0.0
25/09:30pm 12.1 12.3 11.9 99 0.1 NE 2 7 1 4 1018.1 1015.2 0.0
25/09:00pm 12.1 11.5 11.8 98 0.2 NNW 6 7 3 4 1017.8 1014.9 0.0
25/08:30pm 12.5 11.9 11.6 94 0.5 ENE 6 7 3 4 1017.5 1014.6 0.0
25/08:00pm 14.4 14.7 13.3 93 0.6 SW 4 7 2 4 1017.0 1014.1 0.0
25/07:30pm 15.1 14.8 12.8 86 1.3 WNW 6 9 3 5 1016.8 1013.9 0.0
25/07:09pm 16.3 17.2 13.0 81 1.9 CALM 0 0 0 0 1016.4 1013.5 0.0
25/07:00pm 16.5 17.4 13.0 80 2.0 CALM 0 0 0 0 1016.3 1013.4 0.0
25/06:56pm 16.8 17.8 13.3 80 2.1 CALM 0 0 0 0 1016.3 1013.4 0.0
25/06:30pm 18.0 17.5 13.7 76 2.6 SSW 9 13 5 7 1016.3 1013.4 0.0
25/06:00pm 17.9 15.8 13.6 76 2.5 SSW 17 24 9 13 1016.1 1013.2 0.0
25/05:30pm 18.0 16.1 14.1 78 2.3 SSW 17 20 9 11 1016.0 1013.1 0.0
25/05:00pm 18.3 17.1 14.0 76 2.6 SSW 13 19 7 10 1016.1 1013.2 0.0
25/04:30pm 19.2 17.8 13.4 69 3.4 SSW 13 20 7 11 1015.6 1012.6 0.0
25/04:00pm 20.0 20.0 14.1 69 3.6 NNE 7 11 4 6 1015.6 1012.6 0.0
25/03:30pm 20.1 19.4 14.2 69 3.6 NE 11 13 6 7 1015.7 1012.7 0.0
25/03:00pm 19.6 18.9 13.3 67 3.7 NE 9 13 5 7 1015.8 1012.9 0.0
25/02:30pm 20.0 19.2 14.1 69 3.6 NE 11 15 6 8 1015.9 1013.0 0.0
25/02:00pm 19.6 19.2 14.0 70 3.4 ENE 9 17 5 9 1016.3 1013.4 0.0
25/01:30pm 18.2 17.1 14.3 78 2.3 ENE 13 17 7 9 1016.5 1013.6 0.0
25/01:00pm 17.1 15.9 14.0 82 1.8 E 13 19 7 10 1017.1 1014.2 0.0
25/12:30pm 16.7 15.8 13.6 82 1.8 ENE 11 15 6 8 1017.6 1014.8 0.0
25/12:00pm 16.8 15.4 13.3 80 2.1 ENE 13 15 7 8 1018.0 1015.1 0.0
25/11:30am 15.9 15.1 14.1 89 1.1 NE 11 15 6 8 1018.0 1015.1 0.0
25/11:00am 14.3 12.8 13.2 93 0.6 NE 13 17 7 9 1018.3 1015.4 0.0
25/10:30am 13.6 11.2 12.5 93 0.6 NE 17 20 9 11 1018.2 1015.3 0.0
25/10:00am 13.0 10.6 12.7 98 0.2 NNE 17 20 9 11 1018.1 1015.2 0.0
25/09:30am 12.6 10.5 12.4 99 0.1 NE 15 20 8 11 1018.1 1015.2 0.0
25/09:00am 12.4 10.2 12.2 99 0.1 NE 15 19 8 10 1018.2 1015.3 0.0
25/08:30am 11.7 10.1 11.7 100 0.0 NNE 11 11 6 6 1018.4 1015.5 0.0
25/08:00am 11.2 10.3 11.2 100 0.0 NNE 7 9 4 5 1018.7 1015.9 0.0
25/07:30am 10.4 9.2 10.4 100 0.0 NNE 7 11 4 6 1018.3 1015.4 0.0
25/07:00am 10.6 8.7 10.6 100 0.0 NNE 11 15 6 8 1018.0 1015.1 0.0
25/06:30am 11.1 8.2 11.1 100 0.0 NE 17 20 9 11 1017.9 1015.0 0.0
25/06:00am 11.2 7.8 11.2 100 0.0 NE 20 24 11 13 1018.0 1015.1 0.0
25/05:30am 11.0 7.7 11.0 100 0.0 NE 19 20 10 11 1017.8 1014.9 0.0
25/05:00am 10.9 7.4 10.9 100 0.0 NE 20 24 11 13 1017.5 1014.6 0.0
25/04:30am 10.7 7.3 10.7 100 0.0 NE 19 20 10 11 1018.1 1015.2 0.0
25/04:00am 10.2 7.5 10.2 100 0.0 NE 15 19 8 10 1018.4 1015.5 0.0
25/03:30am 10.1 7.7 10.1 100 0.0 NE 13 17 7 9 1018.4 1015.5 0.0
25/03:00am 10.4 8.1 10.4 100 0.0 NNE 13 17 7 9 1019.0 1016.1 0.0
25/02:30am 10.4 8.1 10.4 100 0.0 NE 13 15 7 8 1019.4 1016.5 0.0
25/02:00am 10.5 9.0 10.5 100 0.0 NNE 9 11 5 6 1019.7 1016.9 0.0
25/01:30am 11.2 8.4 11.2 100 0.0 NNE 17 19 9 10 1019.7 1016.9 0.0
25/01:00am 11.0 8.5 11.0 100 0.0 NE 15 17 8 9 1020.2 1017.3 0.0
25/12:30am 11.1 8.6 11.1 100 0.0 NNE 15 17 8 9 1019.7 1016.9 0.0
25/12:00am 11.0 8.8 10.8 99 0.1 NNE 13 15 7 8 1020.7 1017.9 0.0
 
Date/Time
EDT
Temp
°C
App
Temp
°C
Dew
Point
°C
Rel
Hum
%
Delta-T
°C
Wind Press
QNH
hPa
Press
MSL
hPa
Rain since
9am
mm
Dir  Spd
km/h
Gust
km/h
Spd
kts
Gust
kts
24/11:30pm 11.4 9.3 11.2 99 0.1 NNE 13 15 7 8 1021.0 1018.2 0.0
24/11:00pm 11.8 10.2 11.6 99 0.1 NNE 11 13 6 7 1021.0 1018.2 0.0
24/10:30pm 12.1 9.8 11.9 99 0.1 NNE 15 17 8 9 1021.4 1018.5 0.0
24/10:00pm 12.4 11.0 12.1 98 0.2 N 11 17 6 9 1022.0 1019.2 0.0
24/09:30pm 12.9 10.0 12.4 97 0.3 NE 19 24 10 13 1021.1 1018.3 0.0
24/09:00pm 13.0 10.9 12.5 97 0.3 NE 15 19 8 10 1021.5 1018.7 0.0
24/08:30pm 13.3 11.6 12.4 94 0.5 NNE 13 17 7 9 1021.3 1018.4 0.0
24/08:00pm 13.3 11.4 11.7 90 0.9 NE 13 15 7 8 1020.9 1018.1 0.0
24/07:30pm 13.9 11.0 11.1 83 1.6 NE 17 20 9 11 1020.7 1017.9 0.0
24/07:00pm 14.9 12.0 10.9 77 2.2 ENE 17 20 9 11 1020.7 1017.9 0.0
24/06:30pm 16.5 13.4 10.4 67 3.4 NE 17 20 9 11 1020.7 1017.9 0.0
24/06:00pm 16.9 14.8 11.0 68 3.3 NE 13 20 7 11 1020.9 1018.1 0.0

Latest Capital City Observations: Canberra | Sydney | Melbourne | Brisbane | Adelaide | Perth | Hobart | Darwin

Other Formats:

Comma delimited format used in spreadsheet applications
http://www.bom.gov.au/fwo/IDN60903/IDN60903.94921.axf

JavaScript Object Notation format (JSON) in row-major order
http://www.bom.gov.au/fwo/IDN60903/IDN60903.94921.json